Kamensk-Ural'skiy, Russia
Current Conditions -  °F | °C
As of 2:00 AM on Saturday 01 Nov 2014 (Local Time) from USSS Reporting Station
Overcast Overcast  
Wind Chill: 31°   Ceiling: 1700
Heat Index: 37°   Visibility: 6mi
Dew Point: 36°   Wind: 9mph
Humidity: 93%   Direction: 240°WSW
Pressure: 29.91"   Gusts: NA
Location:  56.43°N, 61.87°E
Report Text: USSS 312100Z 24004MPS 9999 OVC017 03/02 Q1013 7629//40 NOSIGRMK QFE739
Loading
Personal Weather Stations






























Interactive Weather Map
Tropical Storm Tracking
New forecast layout! Learn more

10-Day Weather Forecast

Advertisements
Track Severe Weather on mobile